Time;durP1;ratioP1;P1;durP2;ratioP2;P2;SDS_P1;SDS_P2;PMS_P1;PMS_P2;Temp;Humidity;BMP_temperature;BMP_pressure;BME280_temperature;BME280_humidity;BME280_pressure;Samples;Min_cycle;Max_cycle;Signal;HPM_P1;HPM_P2
2022/05/04 00:01:46;;;;;;;5.65;4.35;;;14.90;98.70;;;;;;4874931;29;20052;-48
2022/05/04 00:04:12;;;;;;;5.28;4.78;;;14.90;98.30;;;;;;4875058;29;20028;-45
2022/05/04 00:06:38;;;;;;;6.00;5.40;;;14.90;96.60;;;;;;4874888;29;20025;-44
2022/05/04 00:09:03;;;;;;;5.43;4.40;;;14.90;95.90;;;;;;4875002;29;20539;-43
2022/05/04 00:11:29;;;;;;;6.03;4.55;;;15.00;95.60;;;;;;4910294;23;20067;-47
2022/05/04 00:13:54;;;;;;;5.18;4.68;;;15.20;95.20;;;;;;4952107;29;20039;-45
2022/05/04 00:16:20;;;;;;;9.27;4.90;;;15.10;95.20;;;;;;4953177;29;20097;-45
2022/05/04 00:18:46;;;;;;;7.50;4.35;;;15.20;95.00;;;;;;4951679;29;20030;-45
2022/05/04 00:21:12;;;;;;;6.32;4.50;;;15.20;95.00;;;;;;4952175;28;20024;-47
2022/05/04 00:23:37;;;;;;;11.00;4.50;;;15.30;95.10;;;;;;4953320;29;20039;-46
2022/05/04 00:26:03;;;;;;;5.25;4.50;;;15.30;94.70;;;;;;4966699;28;20499;-47
2022/05/04 00:28:29;;;;;;;5.18;3.72;;;15.30;94.90;;;;;;4952802;28;20376;-45
2022/05/04 00:30:54;;;;;;;8.13;4.57;;;15.20;94.70;;;;;;4953157;28;20023;-47
2022/05/04 00:33:20;;;;;;;4.80;4.38;;;15.10;95.00;;;;;;4953069;28;20031;-48
2022/05/04 00:35:45;;;;;;;9.43;4.32;;;15.10;95.00;;;;;;4967888;28;20023;-51
2022/05/04 00:38:11;;;;;;;6.20;4.40;;;15.10;95.20;;;;;;4953018;28;20031;-47
2022/05/04 00:40:36;;;;;;;4.45;4.05;;;15.10;95.20;;;;;;4951504;29;20027;-46
2022/05/04 00:43:02;;;;;;;5.50;4.47;;;15.00;95.20;;;;;;4954708;28;20462;-46
2022/05/04 00:45:28;;;;;;;4.18;3.88;;;15.00;95.30;;;;;;4956572;29;20027;-46
2022/05/04 00:47:54;;;;;;;4.28;3.55;;;14.90;95.90;;;;;;4956108;29;20031;-47
2022/05/04 00:50:20;;;;;;;4.53;3.78;;;15.00;96.00;;;;;;4955173;29;20034;-46
2022/05/04 00:52:48;;;;;;;5.40;4.13;;;15.00;96.80;;;;;;4956174;28;20030;-46
2022/05/04 00:55:16;;;;;;;4.68;4.05;;;15.00;96.30;;;;;;4956392;28;20023;-45
2022/05/04 01:00:28;;;;;;;7.07;4.00;;;15.00;95.30;;;;;;4956373;29;20038;-46
2022/05/04 01:02:54;;;;;;;4.93;4.13;;;15.10;95.10;;;;;;4955784;29;20392;-48
2022/05/04 01:05:19;;;;;;;5.60;4.68;;;15.10;95.10;;;;;;4956375;28;20549;-49
2022/05/04 01:07:46;;;;;;;5.47;4.95;;;15.10;95.20;;;;;;4955682;28;20035;-48
2022/05/04 01:10:13;;;;;;;4.60;4.10;;;15.00;95.30;;;;;;4956090;28;20086;-46
2022/05/04 01:12:53;;;;;;;7.63;4.03;;;14.90;95.30;;;;;;4955726;28;20423;-47
2022/05/04 01:15:22;;;;;;;10.00;6.00;;;14.90;95.30;;;;;;4970569;28;20031;-45
2022/05/04 01:17:49;;;;;;;6.35;4.75;;;14.80;95.50;;;;;;4970184;28;20063;-45
2022/05/04 01:20:16;;;;;;;6.18;4.85;;;14.80;95.60;;;;;;4955592;29;20043;-45
2022/05/04 01:22:41;;;;;;;5.30;4.80;;;14.80;95.80;;;;;;4955719;28;20123;-48
2022/05/04 01:25:08;;;;;;;5.68;5.03;;;14.80;95.90;;;;;;4955832;28;20532;-46
2022/05/04 01:27:33;;;;;;;5.75;4.60;;;14.70;96.10;;;;;;4970234;28;20023;-45
2022/05/04 01:30:00;;;;;;;6.90;4.85;;;14.80;96.20;;;;;;4955574;28;20035;-44
2022/05/04 01:32:26;;;;;;;7.60;4.88;;;14.70;96.40;;;;;;4955569;28;20030;-46
2022/05/04 01:34:52;;;;;;;6.18;4.95;;;14.60;96.60;;;;;;4955256;28;20031;-45
2022/05/04 01:37:17;;;;;;;8.18;4.85;;;14.50;96.80;;;;;;4955214;29;20051;-48
2022/05/04 01:39:43;;;;;;;11.05;4.65;;;14.50;96.80;;;;;;4970435;28;20111;-46
2022/05/04 01:42:16;;;;;;;4.82;4.32;;;14.50;96.50;;;;;;4955407;28;20511;-47
2022/05/04 01:44:43;;;;;;;8.55;4.70;;;14.40;96.50;;;;;;4955574;29;20023;-48
2022/05/04 01:47:09;;;;;;;6.28;4.88;;;14.30;96.50;;;;;;4955036;29;20086;-45
2022/05/04 01:49:35;;;;;;;10.77;5.32;;;14.30;96.60;;;;;;4955538;28;20031;-47
2022/05/04 01:52:01;;;;;;;7.55;4.75;;;14.30;96.50;;;;;;4955543;28;20511;-47
2022/05/04 01:54:26;;;;;;;6.97;4.30;;;14.40;96.60;;;;;;4954273;28;20032;-46
2022/05/04 01:56:52;;;;;;;5.38;4.03;;;14.30;96.60;;;;;;4955256;29;20023;-47
2022/05/04 01:59:18;;;;;;;5.15;4.38;;;14.40;96.50;;;;;;4955464;29;20119;-46
2022/05/04 02:01:44;;;;;;;14.65;4.90;;;14.40;96.80;;;;;;4955159;28;20114;-45
2022/05/04 02:04:10;;;;;;;4.80;4.32;;;14.40;96.50;;;;;;4955347;29;20031;-47
2022/05/04 02:06:37;;;;;;;8.68;4.75;;;14.40;96.40;;;;;;4955117;29;20039;-46
2022/05/04 02:09:04;;;;;;;7.80;4.57;;;14.40;96.20;;;;;;4954745;29;20053;-45
2022/05/04 02:11:32;;;;;;;8.75;4.50;;;14.50;96.20;;;;;;4954832;28;20131;-46
2022/05/04 02:13:58;;;;;;;5.00;4.50;;;14.40;96.30;;;;;;4954844;29;20098;-45
2022/05/04 02:16:23;;;;;;;5.90;4.32;;;14.40;96.30;;;;;;4954798;28;20487;-46
2022/05/04 02:18:49;;;;;;;6.85;4.57;;;14.40;96.30;;;;;;4954614;29;20046;-47
2022/05/04 02:21:14;;;;;;;8.77;4.97;;;14.50;96.30;;;;;;4954771;28;20103;-47
2022/05/04 02:23:40;;;;;;;9.95;5.57;;;14.40;96.10;;;;;;4954877;29;20037;-46
2022/05/04 02:26:05;;;;;;;5.43;4.40;;;14.40;96.30;;;;;;4954647;29;20035;-49
2022/05/04 02:28:31;;;;;;;5.68;4.60;;;14.40;96.40;;;;;;4954051;29;20046;-47
2022/05/04 02:30:56;;;;;;;7.38;5.22;;;14.40;96.50;;;;;;4954513;28;20395;-49
2022/05/04 02:33:22;;;;;;;6.57;4.82;;;14.30;96.50;;;;;;4954457;28;20023;-48
2022/05/04 02:38:31;;;;;;;7.13;4.97;;;14.30;96.70;;;;;;4954420;29;20042;-46
2022/05/04 02:40:57;;;;;;;7.47;4.55;;;14.30;96.70;;;;;;4954142;28;20031;-51
2022/05/04 02:43:23;;;;;;;5.25;4.30;;;14.30;96.80;;;;;;4954150;28;20086;-44
2022/05/04 02:45:48;;;;;;;6.32;5.65;;;14.20;96.80;;;;;;4954555;29;20031;-46
2022/05/04 02:48:14;;;;;;;5.70;5.10;;;14.20;96.90;;;;;;4952751;28;20062;-46
2022/05/04 02:50:39;;;;;;;7.68;5.10;;;14.20;97.10;;;;;;4954239;29;20475;-48
2022/05/04 02:53:05;;;;;;;6.90;6.05;;;14.20;97.10;;;;;;4954240;28;20090;-45
2022/05/04 02:55:31;;;;;;;8.85;5.55;;;14.10;97.20;;;;;;4953938;29;20031;-46
2022/05/04 02:57:57;;;;;;;4.93;4.53;;;14.00;97.50;;;;;;4953628;28;20046;-45
2022/05/04 03:00:24;;;;;;;9.10;5.22;;;14.00;97.50;;;;;;4954177;28;20031;-49
2022/05/04 03:02:50;;;;;;;6.78;4.95;;;14.00;97.50;;;;;;4954696;28;20397;-50
2022/05/04 03:05:18;;;;;;;9.90;5.50;;;14.00;97.70;;;;;;4954100;28;20023;-47
2022/05/04 03:07:44;;;;;;;8.63;4.72;;;13.90;97.80;;;;;;4954157;28;20400;-49
2022/05/04 03:10:10;;;;;;;5.80;4.80;;;14.00;97.80;;;;;;4954147;28;20033;-45
2022/05/04 03:12:36;;;;;;;8.48;4.90;;;13.90;97.90;;;;;;4968937;28;20038;-47
2022/05/04 03:15:02;;;;;;;7.57;5.07;;;13.90;98.10;;;;;;4954163;29;20023;-45
2022/05/04 03:17:29;;;;;;;7.05;5.25;;;13.80;98.10;;;;;;4968392;28;20054;-46
2022/05/04 03:19:55;;;;;;;10.02;5.95;;;13.80;98.20;;;;;;4953811;29;20031;-48
2022/05/04 03:22:20;;;;;;;7.70;5.57;;;13.80;98.20;;;;;;4953762;28;20102;-47
2022/05/04 03:24:46;;;;;;;4.50;4.20;;;13.70;98.40;;;;;;4953262;29;20035;-46
2022/05/04 03:27:11;;;;;;;6.25;4.45;;;13.70;98.70;;;;;;4953233;28;20039;-46
2022/05/04 03:29:37;;;;;;;6.65;4.55;;;13.60;99.10;;;;;;4968497;28;20027;-45
2022/05/04 03:32:03;;;;;;;5.40;4.18;;;13.60;99.10;;;;;;4953695;28;20028;-45
2022/05/04 03:34:29;;;;;;;11.05;6.57;;;13.70;99.90;;;;;;4953291;28;20045;-45
2022/05/04 03:36:55;;;;;;;6.53;5.07;;;13.70;99.20;;;;;;4952721;28;20035;-46
2022/05/04 03:39:20;;;;;;;6.43;5.15;;;13.70;98.70;;;;;;4953553;29;20033;-46
2022/05/04 03:41:46;;;;;;;6.05;5.10;;;13.70;98.60;;;;;;4952178;29;20448;-47
2022/05/04 03:44:11;;;;;;;6.45;5.13;;;13.70;98.70;;;;;;4953510;29;20458;-46
2022/05/04 03:46:48;;;;;;;6.35;5.18;;;13.70;98.80;;;;;;4953549;29;20035;-47
2022/05/04 03:49:17;;;;;;;6.22;4.97;;;13.80;98.60;;;;;;4968024;28;20027;-48
2022/05/04 03:51:43;;;;;;;4.95;4.55;;;13.70;99.10;;;;;;4953031;28;20047;-48
2022/05/04 03:54:09;;;;;;;5.97;4.95;;;13.70;99.60;;;;;;4953506;29;20047;-46
2022/05/04 03:56:35;;;;;;;8.60;4.53;;;13.70;99.90;;;;;;4953285;29;20391;-44
2022/05/04 03:59:03;;;;;;;3.80;3.50;;;13.70;99.90;;;;;;4953096;29;20027;-46
2022/05/04 04:01:28;;;;;;;6.28;4.22;;;13.60;99.90;;;;;;4953329;28;20082;-46
2022/05/04 04:03:54;;;;;;;6.10;4.90;;;13.60;99.90;;;;;;4953207;29;20030;-47
2022/05/04 04:06:19;;;;;;;5.00;4.50;;;13.50;99.90;;;;;;4953260;28;20031;-46
2022/05/04 04:08:45;;;;;;;4.75;4.20;;;13.50;99.90;;;;;;4952837;28;20047;-46
2022/05/04 04:11:10;;;;;;;7.18;4.53;;;13.50;99.90;;;;;;4952530;28;20019;-50
2022/05/04 04:13:39;;;;;;;4.80;4.35;;;13.50;99.90;;;;;;4953281;29;20105;-47
2022/05/04 04:16:05;;;;;;;4.88;4.47;;;13.40;99.90;;;;;;4953169;28;20031;-50
2022/05/04 04:18:31;;;;;;;4.97;4.55;;;13.40;99.90;;;;;;4955540;28;20471;-45
2022/05/04 04:23:41;;;;;;;6.30;4.93;;;13.30;99.90;;;;;;4956206;29;20041;-46
2022/05/04 04:26:07;;;;;;;7.32;4.63;;;13.40;99.90;;;;;;4968019;28;20031;-49
2022/05/04 04:28:34;;;;;;;4.85;4.28;;;13.30;99.90;;;;;;4957226;28;20118;-49
2022/05/04 04:31:01;;;;;;;10.93;4.60;;;13.40;99.90;;;;;;4956821;28;20027;-48
2022/05/04 04:33:26;;;;;;;7.95;5.15;;;13.40;99.90;;;;;;4956821;29;20031;-52
2022/05/04 04:35:56;;;;;;;5.93;5.32;;;;;;;;;;4971494;28;20026;-49
2022/05/04 04:38:22;;;;;;;13.00;6.03;;;13.20;99.90;;;;;;4956484;28;20035;-48
2022/05/04 04:40:48;;;;;;;8.23;5.10;;;13.20;99.90;;;;;;4956366;29;20032;-47
2022/05/04 04:43:14;;;;;;;7.70;5.78;;;13.20;99.90;;;;;;4956546;28;20479;-45
2022/05/04 04:45:40;;;;;;;6.03;5.25;;;13.10;99.90;;;;;;4956284;29;20046;-48
2022/05/04 04:48:06;;;;;;;6.60;6.00;;;13.10;99.90;;;;;;4956301;28;20039;-44
2022/05/04 04:50:32;;;;;;;10.23;5.75;;;13.20;99.90;;;;;;4956344;28;20391;-46
2022/05/04 04:52:57;;;;;;;8.18;6.45;;;13.10;99.90;;;;;;4956251;28;20016;-47
2022/05/04 04:55:23;;;;;;;11.95;5.85;;;13.20;99.90;;;;;;4956479;28;20498;-46
2022/05/04 04:57:48;;;;;;;7.07;6.43;;;13.20;99.90;;;;;;4956120;28;20038;-47
2022/05/04 05:00:14;;;;;;;9.93;6.45;;;13.20;99.90;;;;;;4955748;28;20077;-45
2022/05/04 05:02:40;;;;;;;13.85;6.90;;;13.30;99.90;;;;;;4956245;28;20083;-48
2022/05/04 05:05:07;;;;;;;6.93;6.13;;;13.40;99.90;;;;;;4956180;29;20019;-47
2022/05/04 05:07:33;;;;;;;8.00;5.30;;;13.50;99.90;;;;;;4955385;29;20023;-47
2022/05/04 05:09:58;;;;;;;8.27;5.63;;;13.60;99.90;;;;;;4955424;28;20031;-46
2022/05/04 05:12:24;;;;;;;7.38;5.85;;;13.60;99.90;;;;;;4955260;28;20039;-47
2022/05/04 05:17:35;;;;;;;7.72;6.30;;;13.80;99.90;;;;;;4955142;29;20506;-46
2022/05/04 05:20:04;;;;;;;13.15;6.03;;;13.70;99.90;;;;;;4965946;28;20517;-48
2022/05/04 05:22:30;;;;;;;7.88;6.22;;;13.70;99.90;;;;;;4975516;28;20037;-44
2022/05/04 05:24:55;;;;;;;6.45;5.85;;;13.70;99.90;;;;;;4961956;28;20075;-48
2022/05/04 05:27:24;;;;;;;9.98;5.40;;;13.70;99.90;;;;;;4955502;29;20159;-50
2022/05/04 05:29:50;;;;;;;6.75;6.05;;;13.70;99.90;;;;;;4955654;28;20079;-46
2022/05/04 05:32:15;;;;;;;6.50;5.43;;;13.70;99.90;;;;;;4955179;29;20028;-49
2022/05/04 05:34:41;;;;;;;5.75;5.20;;;13.80;99.90;;;;;;4973456;28;20124;-47
2022/05/04 05:37:07;;;;;;;7.35;5.40;;;13.80;99.90;;;;;;4974705;28;20569;-46
2022/05/04 05:39:33;;;;;;;5.72;5.18;;;13.90;99.90;;;;;;4972747;28;20066;-46
2022/05/04 05:41:59;;;;;;;8.77;5.63;;;13.90;99.90;;;;;;4954978;29;20245;-47
2022/05/04 05:44:25;;;;;;;6.93;6.22;;;13.90;99.90;;;;;;4955128;28;20042;-45
2022/05/04 05:46:50;;;;;;;12.15;5.85;;;13.80;99.90;;;;;;4955651;28;20035;-47
2022/05/04 05:49:16;;;;;;;10.38;6.45;;;13.80;99.90;;;;;;4956435;28;20125;-51
2022/05/04 05:51:42;;;;;;;8.48;6.95;;;13.80;99.90;;;;;;4955459;28;20058;-45
2022/05/04 05:54:07;;;;;;;8.90;6.07;;;13.90;99.90;;;;;;4954605;28;20034;-46
2022/05/04 05:56:33;;;;;;;6.47;5.72;;;14.00;99.90;;;;;;4971000;28;20031;-46
2022/05/04 05:58:59;;;;;;;6.57;5.63;;;14.00;99.90;;;;;;4971776;28;20019;-48
2022/05/04 06:01:24;;;;;;;6.55;5.93;;;14.10;99.90;;;;;;4955418;28;20357;-52
2022/05/04 06:03:52;;;;;;;12.95;5.97;;;14.00;99.90;;;;;;4954834;28;20041;-49
2022/05/04 06:06:18;;;;;;;5.65;5.10;;;14.00;99.90;;;;;;4954802;28;20131;-46
2022/05/04 06:08:43;;;;;;;6.25;5.43;;;14.00;99.90;;;;;;4953715;28;20110;-52
2022/05/04 06:11:09;;;;;;;9.27;6.32;;;14.10;99.90;;;;;;4954492;28;20054;-48
2022/05/04 06:13:34;;;;;;;5.18;4.72;;;14.20;99.90;;;;;;4919319;23;20420;-47
2022/05/04 06:16:00;;;;;;;10.77;5.35;;;14.30;99.90;;;;;;4893214;29;20384;-45
2022/05/04 06:18:25;;;;;;;8.68;5.75;;;14.40;99.90;;;;;;4890516;29;20036;-46
2022/05/04 06:20:51;;;;;;;6.63;5.95;;;14.50;99.90;;;;;;4903960;29;20037;-43
2022/05/04 06:23:16;;;;;;;8.00;5.95;;;14.50;99.90;;;;;;4926546;29;20541;-45
2022/05/04 06:25:42;;;;;;;11.27;6.47;;;14.70;99.90;;;;;;4931868;28;20024;-44
2022/05/04 06:28:08;;;;;;;9.65;8.10;;;14.80;99.90;;;;;;4909467;29;20098;-49
2022/05/04 06:36:02;;;;;;;9.00;6.55;;;14.90;99.90;;;;;;4908797;29;20063;-47
2022/05/04 06:38:28;;;;;;;7.63;6.45;;;15.00;99.90;;;;;;4933265;28;20028;-45
2022/05/04 06:40:54;;;;;;;10.63;6.93;;;15.20;99.50;;;;;;4912779;29;20093;-45
2022/05/04 06:43:20;;;;;;;14.07;7.10;;;15.30;99.40;;;;;;4931903;29;20070;-43
2022/05/04 06:45:45;;;;;;;9.05;6.70;;;15.40;99.10;;;;;;4931188;28;20059;-45
2022/05/04 06:48:11;;;;;;;10.55;6.82;;;15.50;99.00;;;;;;4946895;28;20036;-44
2022/05/04 06:50:37;;;;;;;12.70;7.28;;;15.60;98.60;;;;;;4932394;28;20403;-47
2022/05/04 06:53:03;;;;;;;11.30;6.82;;;15.50;98.40;;;;;;4947420;29;20118;-45
2022/05/04 06:55:29;;;;;;;9.45;7.88;;;15.40;98.90;;;;;;4916921;28;20036;-45
2022/05/04 06:57:54;;;;;;;10.70;7.53;;;15.50;98.70;;;;;;4927519;28;20016;-43
2022/05/04 07:00:20;;;;;;;9.25;7.13;;;15.70;98.70;;;;;;4930608;28;20103;-45
2022/05/04 07:02:45;;;;;;;8.25;6.85;;;16.10;98.30;;;;;;4912866;29;20028;-47
2022/05/04 07:05:11;;;;;;;7.60;6.82;;;16.50;96.70;;;;;;4913376;28;20436;-44
2022/05/04 07:07:36;;;;;;;7.68;6.32;;;16.80;96.10;;;;;;4914948;28;20107;-47
2022/05/04 07:10:02;;;;;;;8.77;6.30;;;16.80;96.30;;;;;;4914827;28;20393;-43
2022/05/04 07:12:28;;;;;;;10.02;6.82;;;17.00;96.40;;;;;;4912640;29;20068;-48
2022/05/04 07:14:56;;;;;;;11.13;7.50;;;16.90;96.30;;;;;;4911988;29;20044;-45
2022/05/04 07:17:22;;;;;;;7.40;6.70;;;17.00;97.20;;;;;;4901155;29;20032;-44
2022/05/04 07:19:48;;;;;;;10.68;7.95;;;17.50;96.80;;;;;;4913076;29;20227;-48
2022/05/04 07:22:13;;;;;;;16.77;7.28;;;17.60;95.30;;;;;;4912850;28;20100;-44
2022/05/04 07:24:39;;;;;;;10.27;7.80;;;17.50;95.90;;;;;;4912907;29;20031;-44
2022/05/04 07:27:06;;;;;;;10.77;7.43;;;17.50;95.70;;;;;;4912389;29;20103;-44
2022/05/04 07:29:32;;;;;;;9.48;7.55;;;17.50;95.70;;;;;;4912983;28;20043;-45
2022/05/04 07:31:58;;;;;;;14.48;8.98;;;17.40;95.60;;;;;;4912120;29;20028;-44
2022/05/04 07:34:23;;;;;;;10.88;8.15;;;17.30;95.60;;;;;;4912852;28;20028;-44
2022/05/04 07:36:49;;;;;;;16.88;9.02;;;17.10;95.90;;;;;;4912658;28;20432;-45
2022/05/04 07:44:42;;;;;;;26.00;8.48;;;17.50;95.70;;;;;;4912669;29;20078;-47
2022/05/04 07:47:08;;;;;;;12.60;7.70;;;17.50;95.50;;;;;;4912383;28;20024;-45
2022/05/04 07:49:33;;;;;;;10.85;6.90;;;17.40;95.80;;;;;;4912591;28;20036;-45
2022/05/04 07:51:59;;;;;;;11.85;7.32;;;17.60;95.40;;;;;;4912572;28;20021;-47
2022/05/04 07:54:24;;;;;;;8.73;7.82;;;18.00;95.30;;;;;;4916216;28;20066;-40
2022/05/04 07:56:50;;;;;;;8.68;7.65;;;18.20;94.60;;;;;;4915665;28;20454;-45
2022/05/04 07:59:15;;;;;;;50.88;32.92;;;18.60;94.60;;;;;;4914586;28;20032;-47
2022/05/04 08:04:25;;;;;;;10.02;6.75;;;20.40;92.00;;;;;;4915938;29;20467;-46
2022/05/04 08:06:50;;;;;;;8.35;5.80;;;21.10;91.70;;;;;;4915978;28;20040;-45
2022/05/04 08:09:16;;;;;;;8.13;6.15;;;20.90;90.40;;;;;;4914596;28;20032;-50
2022/05/04 08:11:43;;;;;;;10.20;6.90;;;21.00;90.80;;;;;;4915942;28;20028;-49
2022/05/04 08:14:09;;;;;;;9.48;6.80;;;20.50;89.70;;;;;;4916088;29;20032;-48
2022/05/04 08:16:34;;;;;;;7.57;6.88;;;20.20;90.80;;;;;;4915492;29;20024;-49
2022/05/04 08:19:00;;;;;;;9.52;6.65;;;20.20;91.30;;;;;;4915204;28;20036;-45
2022/05/04 08:21:26;;;;;;;13.68;7.65;;;20.20;91.40;;;;;;4915394;29;20031;-48
2022/05/04 08:23:52;;;;;;;12.15;7.40;;;19.90;91.10;;;;;;4915389;29;20043;-45
2022/05/04 08:26:17;;;;;;;10.65;7.22;;;19.20;91.90;;;;;;4916083;29;20384;-48
2022/05/04 08:28:43;;;;;;;16.05;7.85;;;18.40;92.90;;;;;;4915105;28;20043;-49
2022/05/04 08:31:08;;;;;;;10.73;8.02;;;18.00;93.50;;;;;;4915678;28;20079;-47
2022/05/04 08:33:35;;;;;;;13.73;7.38;;;17.80;93.80;;;;;;4913028;28;20518;-45
2022/05/04 08:36:01;;;;;;;9.60;7.97;;;17.70;94.00;;;;;;4913386;29;20024;-44
2022/05/04 08:38:27;;;;;;;12.50;7.72;;;17.40;94.90;;;;;;4913436;28;20518;-45
2022/05/04 08:40:55;;;;;;;14.48;8.10;;;17.50;95.50;;;;;;4914744;29;20035;-49
2022/05/04 08:43:24;;;;;;;10.63;7.57;;;17.60;95.30;;;;;;4913766;28;20432;-45
2022/05/04 08:45:52;;;;;;;10.68;7.50;;;17.70;95.10;;;;;;4915355;29;20051;-44
2022/05/04 08:48:19;;;;;;;11.52;7.35;;;17.50;95.30;;;;;;4914680;29;20103;-48
2022/05/04 08:50:45;;;;;;;11.00;7.32;;;17.60;95.30;;;;;;4915338;29;20369;-44
2022/05/04 08:53:12;;;;;;;13.98;7.50;;;17.60;95.60;;;;;;4913787;28;20032;-45
2022/05/04 08:55:38;;;;;;;17.20;8.57;;;17.60;95.50;;;;;;4905291;28;20520;-48
2022/05/04 08:58:05;;;;;;;16.73;8.82;;;17.60;95.70;;;;;;4901397;29;20052;-47
2022/05/04 09:00:31;;;;;;;9.18;7.57;;;17.70;95.30;;;;;;4934106;29;20063;-45
2022/05/04 09:02:56;;;;;;;8.55;7.60;;;17.60;95.20;;;;;;4914373;28;20488;-47
2022/05/04 09:05:27;;;;;;;8.88;7.43;;;17.80;95.50;;;;;;4914090;28;20052;-45
2022/05/04 09:07:56;;;;;;;9.68;6.97;;;18.10;95.00;;;;;;4915418;29;20099;-49
2022/05/04 09:10:22;;;;;;;9.50;8.10;;;18.20;94.60;;;;;;4915514;29;20028;-49
2022/05/04 09:12:51;;;;;;;7.70;6.60;;;18.80;93.90;;;;;;4931508;28;20036;-47
2022/05/04 09:15:23;;;;;;;9.88;8.05;;;19.30;93.10;;;;;;4929262;29;20059;-47
2022/05/04 09:17:58;;;;;;;12.32;7.75;;;19.70;92.50;;;;;;4909857;29;20373;-47
2022/05/04 09:23:11;;;;;;;8.65;6.80;;;19.80;92.40;;;;;;4933825;29;20086;-47
2022/05/04 09:25:38;;;;;;;12.82;7.82;;;20.00;92.00;;;;;;4913278;29;20056;-46
2022/05/04 09:28:10;;;;;;;11.68;7.13;;;19.70;92.80;;;;;;4948110;28;20399;-46
2022/05/04 09:30:37;;;;;;;61.95;38.75;;;19.70;91.90;;;;;;4921595;29;20484;-47
2022/05/04 09:33:09;;;;;;;13.60;10.05;;;19.80;92.00;;;;;;4906259;29;20020;-45
2022/05/04 09:35:34;;;;;;;10.85;6.85;;;19.80;92.60;;;;;;4923380;28;20025;-47
2022/05/04 09:46:37;;;;;;;10.27;6.97;;;19.80;93.40;;;;;;4929634;29;20035;-50
2022/05/04 09:49:10;;;;;;;11.25;7.63;;;20.20;92.00;;;;;;4913961;29;20128;-49
2022/05/04 09:51:37;;;;;;;9.70;6.47;;;20.30;92.70;;;;;;4914313;29;20032;-49
2022/05/04 09:54:28;;;;;;;9.57;6.97;;;20.20;91.50;;;;;;4914111;29;20024;-49
2022/05/04 09:56:56;;;;;;;9.27;6.28;;;20.60;92.00;;;;;;4932763;29;20024;-44
2022/05/04 09:59:25;;;;;;;8.82;7.18;;;21.00;91.20;;;;;;4933088;29;20483;-47
2022/05/04 10:01:51;;;;;;;7.63;6.82;;;21.10;90.70;;;;;;4933055;28;20491;-51
2022/05/04 10:04:18;;;;;;;7.93;6.78;;;21.00;90.80;;;;;;4933154;29;20035;-47
2022/05/04 10:06:44;;;;;;;10.05;6.75;;;21.10;91.00;;;;;;4931694;29;20032;-46
2022/05/04 10:09:11;;;;;;;9.30;6.03;;;21.20;90.50;;;;;;4924079;29;20025;-50
2022/05/04 10:11:37;;;;;;;7.95;6.05;;;21.20;90.60;;;;;;4928673;28;20024;-47
2022/05/04 10:14:05;;;;;;;7.18;6.47;;;21.40;90.40;;;;;;4913624;29;20055;-48
2022/05/04 10:16:53;;;;;;;8.13;6.13;;;21.40;90.30;;;;;;4912924;29;20021;-44
2022/05/04 10:19:23;;;;;;;9.98;5.07;;;21.20;89.80;;;;;;4913654;29;20035;-47
2022/05/04 10:21:51;;;;;;;12.95;7.45;;;21.30;90.10;;;;;;4913869;29;20039;-42
2022/05/04 10:24:19;;;;;;;10.85;6.68;;;21.50;90.70;;;;;;4913887;28;20028;-45
2022/05/04 10:26:45;;;;;;;12.50;7.40;;;21.30;90.20;;;;;;4913552;29;20028;-49
2022/05/04 10:32:28;;;;;;;9.27;8.20;;;21.20;90.80;;;;;;4913797;29;20055;-48
2022/05/04 10:35:20;;;;;;;7.03;5.72;;;21.20;90.30;;;;;;4913497;29;20025;-44
2022/05/04 10:37:53;;;;;;;8.63;6.47;;;21.10;90.50;;;;;;4913420;29;20442;-45
2022/05/04 10:40:33;;;;;;;8.80;7.25;;;21.20;90.60;;;;;;4912970;29;20557;-44
2022/05/04 10:43:05;;;;;;;10.80;7.85;;;21.10;90.90;;;;;;4913623;29;20427;-44
2022/05/04 10:45:34;;;;;;;9.77;7.55;;;21.00;90.90;;;;;;4913850;29;20465;-48
2022/05/04 10:48:17;;;;;;;10.43;7.60;;;21.00;90.70;;;;;;4913366;29;20028;-43
2022/05/04 10:50:55;;;;;;;13.80;9.07;;;20.80;90.20;;;;;;4911867;29;20408;-44
2022/05/04 10:53:24;;;;;;;10.23;8.50;;;20.40;91.30;;;;;;4918075;29;20040;-44
2022/05/04 10:56:01;;;;;;;28.02;9.20;;;20.10;91.90;;;;;;4909382;28;20488;-44
2022/05/04 10:58:31;;;;;;;11.20;8.55;;;19.90;91.50;;;;;;4909898;28;20465;-44
2022/05/04 11:01:16;;;;;;;8.82;7.93;;;19.60;93.10;;;;;;4916295;29;20028;-45
2022/05/04 11:03:50;;;;;;;13.20;7.25;;;19.40;93.30;;;;;;4911348;28;20067;-48
2022/05/04 11:06:26;;;;;;;13.50;7.57;;;19.30;92.90;;;;;;4893088;29;20029;-42
2022/05/04 11:08:52;;;;;;;7.53;6.57;;;19.20;93.60;;;;;;4911296;29;20119;-47
2022/05/04 11:11:21;;;;;;;24.85;15.15;;;19.10;93.50;;;;;;4914361;29;20032;-47
2022/05/04 11:13:46;;;;;;;8.50;7.60;;;19.10;93.90;;;;;;4912283;29;20024;-44
2022/05/04 11:16:12;;;;;;;14.82;8.00;;;19.20;94.10;;;;;;4909976;28;20173;-47
2022/05/04 11:18:38;;;;;;;14.40;8.48;;;19.30;94.50;;;;;;4901863;28;20039;-43
2022/05/04 11:21:10;;;;;;;13.35;7.90;;;19.30;93.10;;;;;;4912519;28;20435;-44
2022/05/04 11:23:37;;;;;;;8.27;7.53;;;19.30;93.50;;;;;;4908383;29;20128;-45
2022/05/04 11:26:03;;;;;;;9.50;7.72;;;19.30;93.40;;;;;;4906417;29;20039;-49
2022/05/04 11:28:28;;;;;;;9.27;7.32;;;19.40;93.10;;;;;;4913179;28;20036;-45
2022/05/04 11:30:54;;;;;;;11.02;7.45;;;19.50;93.20;;;;;;4901545;28;20025;-39
2022/05/04 11:33:20;;;;;;;12.55;8.30;;;19.70;93.30;;;;;;4895220;28;20024;-43
2022/05/04 11:35:56;;;;;;;9.60;8.60;;;19.90;93.00;;;;;;4894257;29;20554;-40
2022/05/04 11:38:22;;;;;;;11.93;7.75;;;20.10;92.50;;;;;;4892728;29;20039;-48
2022/05/04 11:40:50;;;;;;;8.48;7.55;;;20.20;92.80;;;;;;4895269;29;20025;-45
2022/05/04 11:43:27;;;;;;;10.23;8.40;;;20.20;92.50;;;;;;4893942;29;20028;-46
2022/05/04 11:45:53;;;;;;;10.38;8.30;;;20.20;92.20;;;;;;4924509;28;20519;-45
2022/05/04 11:48:19;;;;;;;15.95;9.20;;;20.30;92.40;;;;;;4901576;29;20032;-48
2022/05/04 11:50:46;;;;;;;14.90;9.38;;;20.40;92.20;;;;;;4912039;29;20036;-44
2022/05/04 11:53:12;;;;;;;10.52;8.13;;;20.40;92.60;;;;;;4911883;29;20032;-45
2022/05/04 11:55:38;;;;;;;10.57;8.20;;;20.50;92.20;;;;;;4896631;29;20056;-40
2022/05/04 11:58:11;;;;;;;11.27;7.70;;;20.50;92.50;;;;;;4910040;29;20040;-39
2022/05/04 12:00:38;;;;;;;11.73;8.27;;;20.50;91.90;;;;;;4914061;29;20024;-41
2022/05/04 12:03:05;;;;;;;14.30;9.50;;;20.50;91.60;;;;;;4912854;29;20448;-43
2022/05/04 12:05:32;;;;;;;9.48;7.00;;;20.60;91.50;;;;;;4911326;29;20032;-44
2022/05/04 12:07:58;;;;;;;9.43;7.63;;;20.60;92.00;;;;;;4908680;28;20028;-53
2022/05/04 12:10:24;;;;;;;11.25;8.48;;;20.60;92.10;;;;;;4905919;29;20038;-42
2022/05/04 12:12:50;;;;;;;16.10;7.78;;;20.60;90.80;;;;;;4938702;23;20036;-44
2022/05/04 12:15:16;;;;;;;11.40;7.57;;;20.60;91.40;;;;;;4986827;28;20058;-44
2022/05/04 12:17:42;;;;;;;11.98;8.43;;;20.50;91.10;;;;;;4978418;28;20019;-45
2022/05/04 12:20:08;;;;;;;12.88;7.82;;;20.60;91.30;;;;;;4999279;28;20037;-44
2022/05/04 12:22:33;;;;;;;11.23;8.00;;;20.50;91.40;;;;;;4953745;29;20031;-42
2022/05/04 12:25:00;;;;;;;9.93;7.50;;;20.50;90.50;;;;;;4980850;28;20421;-44
2022/05/04 12:27:26;;;;;;;11.07;7.82;;;20.20;90.60;;;;;;4984700;28;20107;-43
2022/05/04 12:35:29;;;;;;;10.95;8.80;;;20.10;90.60;;;;;;4978187;28;20034;-42
2022/05/04 12:37:55;;;;;;;9.30;8.40;;;20.10;91.10;;;;;;4985708;28;20046;-45
2022/05/04 12:40:23;;;;;;;24.05;9.35;;;20.10;90.70;;;;;;4975781;28;20039;-46
2022/05/04 12:42:49;;;;;;;11.80;7.88;;;20.20;91.30;;;;;;4976172;28;20037;-43
2022/05/04 12:45:16;;;;;;;23.48;10.13;;;20.30;91.60;;;;;;4976044;28;20101;-43
2022/05/04 12:47:42;;;;;;;10.75;7.25;;;20.30;91.70;;;;;;4975625;28;20085;-41
2022/05/04 12:50:08;;;;;;;9.30;7.93;;;20.40;91.10;;;;;;4975948;28;20030;-46
2022/05/04 12:52:38;;;;;;;12.00;8.10;;;20.50;91.20;;;;;;4975988;28;20023;-45
2022/05/04 12:55:05;;;;;;;12.68;8.48;;;20.50;90.50;;;;;;4975566;28;20022;-44
2022/05/04 12:57:30;;;;;;;10.30;8.68;;;20.40;90.00;;;;;;4975341;28;20053;-44
2022/05/04 12:59:56;;;;;;;15.15;7.45;;;20.40;90.20;;;;;;4974963;28;20027;-44
2022/05/04 13:02:22;;;;;;;15.52;9.30;;;20.30;90.40;;;;;;4975603;28;20035;-46
2022/05/04 13:04:48;;;;;;;11.77;8.13;;;20.30;90.00;;;;;;4975513;28;20490;-46
2022/05/04 13:07:13;;;;;;;11.32;8.25;;;20.30;90.30;;;;;;4986311;28;20038;-41
2022/05/04 13:09:41;;;;;;;8.85;7.90;;;20.30;89.50;;;;;;4975352;28;20410;-40
2022/05/04 13:12:10;;;;;;;7.50;6.68;;;20.40;90.30;;;;;;4975387;28;20114;-42
2022/05/04 13:14:37;;;;;;;7.07;6.32;;;20.30;90.40;;;;;;4975006;28;20544;-41
2022/05/04 13:17:03;;;;;;;9.88;7.35;;;20.30;90.40;;;;;;4974955;28;20050;-43
2022/05/04 13:19:29;;;;;;;9.07;6.90;;;20.50;90.50;;;;;;4975780;28;20042;-41
2022/05/04 13:21:54;;;;;;;10.55;6.53;;;20.60;89.60;;;;;;4975354;28;20042;-42
2022/05/04 13:24:20;;;;;;;10.02;7.70;;;20.70;89.90;;;;;;4975375;28;20486;-44
2022/05/04 13:26:45;;;;;;;42.35;23.38;;;20.80;88.80;;;;;;4975192;28;20463;-40